createdAt,value
2022-12-24T00:03:18.952Z,11.70
2022-12-24T00:08:20.798Z,13.52
2022-12-24T00:13:22.573Z,14.50
2022-12-24T00:18:24.423Z,12.07
2022-12-24T00:23:26.170Z,11.98
2022-12-24T00:28:28.126Z,11.43
2022-12-24T00:33:29.827Z,11.10
2022-12-24T00:38:31.700Z,10.93
2022-12-24T00:43:33.495Z,10.38
2022-12-24T00:48:35.281Z,9.85
2022-12-24T00:53:37.131Z,10.20
2022-12-24T00:58:39.102Z,10.95
2022-12-24T01:03:40.919Z,10.07
2022-12-24T01:08:43.063Z,10.55
2022-12-24T01:13:44.806Z,10.95
2022-12-24T01:18:46.888Z,10.27
2022-12-24T01:23:49.306Z,9.75
2022-12-24T01:28:51.154Z,9.77
2022-12-24T01:33:53.050Z,11.45
2022-12-24T01:38:54.814Z,9.95
2022-12-24T01:43:56.539Z,10.80
2022-12-24T01:49:01.574Z,9.90
2022-12-24T01:54:28.857Z,9.90
2022-12-24T01:59:30.921Z,9.18
2022-12-24T02:04:34.721Z,8.77
2022-12-24T02:09:37.445Z,9.32
2022-12-24T02:14:39.238Z,9.02
2022-12-24T02:20:17.821Z,8.40
2022-12-24T02:25:25.593Z,8.30
2022-12-24T02:30:46.302Z,7.88
2022-12-24T02:36:03.242Z,8.15
2022-12-24T02:41:18.340Z,7.35
2022-12-24T02:46:27.992Z,7.07
2022-12-24T02:51:29.733Z,7.15
2022-12-24T02:56:43.524Z,6.95
2022-12-24T03:01:57.749Z,6.20
2022-12-24T03:07:13.581Z,6.85
2022-12-24T03:12:23.951Z,8.67
2022-12-24T03:17:26.784Z,7.85
2022-12-24T03:22:30.755Z,8.52
2022-12-24T03:27:34.459Z,8.73
2022-12-24T03:32:36.142Z,8.15
2022-12-24T03:37:38.367Z,7.80
2022-12-24T03:42:40.216Z,8.90
2022-12-24T03:47:42.001Z,7.78
2022-12-24T03:52:44.192Z,7.07
2022-12-24T03:57:46.036Z,7.45
2022-12-24T04:02:48.062Z,6.80
2022-12-24T04:07:49.885Z,7.45
2022-12-24T04:12:51.568Z,7.43
2022-12-24T04:17:53.279Z,7.32
2022-12-24T04:22:54.914Z,7.35
2022-12-24T04:27:56.591Z,7.13
2022-12-24T04:32:58.279Z,8.00
2022-12-24T04:38:00.399Z,6.93
2022-12-24T04:43:02.587Z,5.50
2022-12-24T04:48:04.766Z,5.50
2022-12-24T04:53:06.445Z,5.63
2022-12-24T04:58:08.141Z,6.00
2022-12-24T05:03:09.892Z,5.20
2022-12-24T05:08:11.859Z,5.65
2022-12-24T05:13:13.529Z,5.70
2022-12-24T05:18:15.222Z,5.47
2022-12-24T05:23:38.410Z,5.40
2022-12-24T05:28:40.150Z,5.43
2022-12-24T05:33:41.870Z,5.00
2022-12-24T05:38:44.482Z,5.65
2022-12-24T05:43:46.457Z,4.32
2022-12-24T05:48:49.049Z,4.65
2022-12-24T05:53:52.144Z,4.60
2022-12-24T05:58:54.958Z,4.40
2022-12-24T06:03:57.592Z,4.60
2022-12-24T06:08:59.398Z,4.88
2022-12-24T06:14:01.430Z,5.07
2022-12-24T06:19:03.134Z,5.40
2022-12-24T06:24:05.121Z,5.07
2022-12-24T06:29:07.056Z,5.20
2022-12-24T06:34:08.860Z,5.38
2022-12-24T06:39:10.567Z,5.60
2022-12-24T06:44:12.603Z,5.05
2022-12-24T06:49:14.269Z,5.13
2022-12-24T06:54:16.151Z,5.10
2022-12-24T06:59:17.917Z,5.63
2022-12-24T07:04:20.698Z,5.53
2022-12-24T07:09:22.676Z,6.53
2022-12-24T07:14:27.552Z,5.25
2022-12-24T07:19:29.347Z,7.22
2022-12-24T07:24:31.429Z,6.97
2022-12-24T07:29:33.257Z,6.55
2022-12-24T07:34:35.500Z,6.97
2022-12-24T07:39:37.283Z,7.18
2022-12-24T07:44:39.011Z,8.13
2022-12-24T07:49:40.812Z,7.47
2022-12-24T07:54:45.809Z,7.35
2022-12-24T07:59:47.532Z,7.93
2022-12-24T08:04:51.553Z,7.68
2022-12-24T08:09:53.360Z,6.60
2022-12-24T08:14:56.068Z,6.43
2022-12-24T08:19:57.782Z,6.53
2022-12-24T08:24:59.538Z,5.80
2022-12-24T08:30:01.402Z,6.38
2022-12-24T08:35:03.248Z,6.38
2022-12-24T08:40:05.574Z,6.18
2022-12-24T08:45:07.858Z,5.75
2022-12-24T08:50:10.422Z,6.03
2022-12-24T08:55:12.244Z,5.47
2022-12-24T09:00:15.125Z,5.95
2022-12-24T09:05:17.148Z,6.28
2022-12-24T09:10:19.138Z,6.45
2022-12-24T09:15:20.948Z,5.47
2022-12-24T09:20:23.198Z,6.60
2022-12-24T09:25:24.949Z,7.18
2022-12-24T09:30:26.682Z,6.20
2022-12-24T09:35:28.851Z,6.38
2022-12-24T09:40:38.157Z,5.15
2022-12-24T09:45:46.139Z,4.50
2022-12-24T09:51:11.151Z,4.88
2022-12-24T09:56:22.737Z,3.35
2022-12-24T10:01:25.052Z,3.80
2022-12-24T10:06:42.407Z,4.30
2022-12-24T10:12:02.771Z,3.58
2022-12-24T10:17:11.228Z,3.92
2022-12-24T10:22:42.063Z,3.40
2022-12-24T10:27:45.686Z,5.00
2022-12-24T10:32:49.902Z,7.50
2022-12-24T10:37:52.939Z,8.32
2022-12-24T10:42:54.782Z,12.25
2022-12-24T10:48:01.505Z,12.43
2022-12-24T10:58:47.994Z,9.70
2022-12-24T11:04:02.373Z,8.90
2022-12-24T11:09:21.743Z,7.72
2022-12-24T11:14:31.318Z,6.72
2022-12-24T11:19:41.653Z,6.60
2022-12-24T11:24:49.892Z,5.05
2022-12-24T11:29:52.412Z,5.30
2022-12-24T11:34:54.379Z,6.00
2022-12-24T11:40:00.004Z,6.05
2022-12-24T11:45:14.834Z,5.45
2022-12-24T11:50:27.088Z,4.80
2022-12-24T11:55:47.292Z,4.95
2022-12-24T12:00:51.605Z,5.10
2022-12-24T12:05:55.870Z,4.75
2022-12-24T12:11:00.138Z,4.97
2022-12-24T12:16:14.281Z,4.80
2022-12-24T12:21:22.515Z,4.60
2022-12-24T12:26:27.308Z,4.93
2022-12-24T12:31:34.298Z,4.38
2022-12-24T12:36:45.650Z,4.50
2022-12-24T12:42:17.484Z,5.32
2022-12-24T12:47:28.222Z,4.90
2022-12-24T12:53:24.736Z,4.85
2022-12-24T12:58:41.647Z,4.47
2022-12-24T13:04:01.321Z,4.60
2022-12-24T13:09:40.615Z,4.80
2022-12-24T13:14:57.570Z,4.85
2022-12-24T13:20:24.497Z,4.50
2022-12-24T13:25:40.277Z,5.22
2022-12-24T13:30:42.629Z,4.90
2022-12-24T13:36:02.631Z,4.18
2022-12-24T13:41:39.914Z,4.03
2022-12-24T13:47:05.339Z,3.22
2022-12-24T13:52:14.551Z,3.78
2022-12-24T13:57:30.864Z,3.72
2022-12-24T14:02:38.739Z,3.63
2022-12-24T14:07:47.715Z,4.20
2022-12-24T14:12:51.988Z,5.30
2022-12-24T14:17:54.054Z,5.45
2022-12-24T14:22:57.117Z,6.03
2022-12-24T14:28:01.068Z,6.88
2022-12-24T14:33:03.137Z,5.97
2022-12-24T14:38:05.787Z,6.18
2022-12-24T14:43:27.453Z,5.78
2022-12-24T14:48:34.634Z,8.15
2022-12-24T14:53:49.585Z,7.97
2022-12-24T14:58:52.617Z,8.32
2022-12-24T15:04:20.886Z,8.35
2022-12-24T15:09:29.606Z,8.65
2022-12-24T15:14:41.754Z,6.85
2022-12-24T15:19:47.801Z,8.88
2022-12-24T15:24:49.720Z,7.87
2022-12-24T15:29:55.849Z,7.10
2022-12-24T15:34:57.708Z,6.10
2022-12-24T15:40:10.126Z,5.65
2022-12-24T15:45:14.058Z,5.75
2022-12-24T15:50:35.807Z,6.35
2022-12-24T15:55:44.140Z,7.65
2022-12-24T16:01:04.726Z,7.63
2022-12-24T16:06:13.880Z,6.90
2022-12-24T16:11:20.355Z,9.73
2022-12-24T16:16:36.084Z,10.00
2022-12-24T16:21:42.393Z,9.27
2022-12-24T16:26:44.688Z,7.68
2022-12-24T16:31:51.634Z,7.90
2022-12-24T16:36:53.829Z,6.72
2022-12-24T16:42:16.020Z,6.82
2022-12-24T16:47:33.382Z,7.00
2022-12-24T16:52:36.660Z,6.72
2022-12-24T16:57:40.941Z,6.93
2022-12-24T17:02:43.006Z,7.10
2022-12-24T17:07:45.414Z,7.00
2022-12-24T17:12:47.077Z,7.70
2022-12-24T17:17:48.817Z,7.90
2022-12-24T17:22:51.022Z,7.60
2022-12-24T17:27:52.733Z,7.65
2022-12-24T17:32:54.401Z,8.65
2022-12-24T17:37:56.146Z,7.40
2022-12-24T17:42:58.030Z,8.50
2022-12-24T17:47:59.764Z,7.72
2022-12-24T17:53:01.457Z,7.80
2022-12-24T17:58:03.230Z,7.47
2022-12-24T18:03:05.101Z,8.30
2022-12-24T18:08:06.857Z,8.43
2022-12-24T18:13:12.663Z,8.52
2022-12-24T18:18:19.103Z,7.53
2022-12-24T18:23:20.790Z,7.10
2022-12-24T18:28:22.527Z,6.80
2022-12-24T18:33:24.257Z,6.63
2022-12-24T18:38:26.516Z,7.53
2022-12-24T18:43:28.574Z,8.75
2022-12-24T18:48:30.436Z,7.88
2022-12-24T18:53:33.135Z,8.18
2022-12-24T18:58:35.288Z,9.30
2022-12-24T19:03:37.221Z,8.82
2022-12-24T19:08:57.039Z,8.32
2022-12-24T19:14:01.808Z,7.13
2022-12-24T19:19:05.516Z,6.88
2022-12-24T19:24:10.569Z,5.68
2022-12-24T19:29:12.707Z,4.95
2022-12-24T19:34:14.634Z,6.90
2022-12-24T19:39:16.620Z,9.20
2022-12-24T19:44:18.599Z,11.80
2022-12-24T19:49:20.606Z,10.30
2022-12-24T19:54:22.574Z,10.68
2022-12-24T19:59:24.324Z,9.88
2022-12-24T20:04:26.248Z,10.05
2022-12-24T20:09:29.128Z,9.15
2022-12-24T20:14:31.108Z,8.93
2022-12-24T20:19:33.125Z,8.10
2022-12-24T20:24:35.120Z,8.20
2022-12-24T20:29:37.042Z,6.53
2022-12-24T20:34:39.078Z,6.65
2022-12-24T20:39:41.333Z,6.00
2022-12-24T20:44:43.426Z,8.07
2022-12-24T20:49:45.396Z,9.15
2022-12-24T20:54:47.459Z,8.75
2022-12-24T20:59:49.349Z,9.43
2022-12-24T21:04:54.147Z,9.15
2022-12-24T21:09:58.428Z,8.77
2022-12-24T21:15:00.345Z,8.35
2022-12-24T21:20:02.894Z,8.30
2022-12-24T21:25:05.741Z,8.70
2022-12-24T21:30:08.558Z,7.45
2022-12-24T21:35:12.533Z,6.45
2022-12-24T21:40:14.312Z,6.63
2022-12-24T21:45:16.194Z,7.78
2022-12-24T21:50:36.750Z,7.18
2022-12-24T21:55:38.544Z,8.05
2022-12-24T22:00:40.278Z,8.77
2022-12-24T22:05:42.062Z,8.25
2022-12-24T22:11:09.783Z,7.88
2022-12-24T22:16:12.757Z,8.98
2022-12-24T22:21:14.575Z,8.90
2022-12-24T22:26:18.198Z,8.88
2022-12-24T22:31:25.923Z,8.38
2022-12-24T22:36:27.888Z,7.22
2022-12-24T22:41:30.110Z,8.10
2022-12-24T22:46:32.078Z,8.07
2022-12-24T22:51:34.054Z,8.18
2022-12-24T22:56:40.962Z,7.75
2022-12-24T23:01:45.776Z,7.30
2022-12-24T23:06:48.086Z,8.82
2022-12-24T23:11:50.080Z,8.55
2022-12-24T23:16:53.803Z,8.10
2022-12-24T23:21:55.621Z,8.40
2022-12-24T23:26:59.107Z,7.95
2022-12-24T23:32:00.944Z,8.82
2022-12-24T23:37:02.788Z,7.30
2022-12-24T23:42:05.064Z,7.45
2022-12-24T23:47:07.224Z,7.97
2022-12-24T23:52:09.931Z,8.77
2022-12-24T23:57:11.686Z,14.85
